Time;durP1;ratioP1;P1;durP2;ratioP2;P2;SDS_P1;SDS_P2;PMS_P1;PMS_P2;Temp;Humidity;BMP_temperature;BMP_pressure;BME280_temperature;BME280_humidity;BME280_pressure;Samples;Min_cycle;Max_cycle;Signal;HPM_P1;HPM_P2
2024/02/22 00:01:43;;;;;;;4.97;1.35;;;;;;;8.52;79.83;98120.16;5011381;28;20099;-47
2024/02/22 00:04:10;;;;;;;9.07;1.33;;;;;;;8.46;79.67;98121.16;5018121;28;20115;-52
2024/02/22 00:06:38;;;;;;;12.80;1.85;;;;;;;8.40;79.91;98109.28;5005816;28;20495;-48
2024/02/22 00:09:07;;;;;;;10.82;1.35;;;;;;;8.36;79.96;98105.06;5018005;28;20053;-47
2024/02/22 00:11:34;;;;;;;8.13;1.45;;;;;;;8.33;79.81;98106.00;5011222;28;20058;-50
2024/02/22 00:14:02;;;;;;;11.05;2.55;;;;;;;8.26;79.52;98098.44;5019579;28;20137;-51
2024/02/22 00:16:29;;;;;;;11.25;1.38;;;;;;;8.22;79.49;98097.69;5016652;28;20069;-49
2024/02/22 00:18:55;;;;;;;8.50;1.15;;;;;;;8.19;79.77;98093.47;5021459;28;20053;-48
2024/02/22 00:21:23;;;;;;;8.20;3.00;;;;;;;8.17;80.59;98090.06;5019064;28;20402;-49
2024/02/22 00:23:50;;;;;;;14.93;1.80;;;;;;;8.12;79.63;98073.00;5009447;28;20054;-47
2024/02/22 00:26:16;;;;;;;10.18;1.38;;;;;;;8.09;80.09;98071.34;5023669;28;20115;-46
2024/02/22 00:28:44;;;;;;;9.52;1.23;;;;;;;8.05;79.49;98064.56;5020748;28;20056;-51
2024/02/22 00:31:11;;;;;;;10.18;1.38;;;;;;;8.02;79.95;98051.75;5008468;28;20049;-51
2024/02/22 00:33:38;;;;;;;10.23;1.20;;;;;;;7.96;79.92;98051.03;5012675;28;20514;-50
2024/02/22 00:36:05;;;;;;;12.13;1.52;;;;;;;7.94;80.22;98047.63;5020652;28;20046;-52
2024/02/22 00:38:32;;;;;;;7.68;1.17;;;;;;;7.91;79.42;98042.53;5022538;28;20125;-47
2024/02/22 00:41:00;;;;;;;6.35;1.27;;;;;;;7.88;79.56;98042.63;5018040;28;20052;-52
2024/02/22 00:43:27;;;;;;;6.25;1.13;;;;;;;7.83;79.58;98039.31;5024071;28;20052;-48
2024/02/22 00:45:55;;;;;;;13.20;3.03;;;;;;;7.81;79.58;98041.91;5018911;28;20057;-48
2024/02/22 00:48:22;;;;;;;6.82;0.73;;;;;;;7.76;80.16;98027.44;5024446;28;20762;-46
2024/02/22 00:50:49;;;;;;;9.00;1.50;;;;;;;7.74;80.63;98024.06;5009026;28;20054;-52
2024/02/22 00:53:16;;;;;;;12.93;1.45;;;;;;;7.71;80.60;98020.66;5011260;28;20049;-47
2024/02/22 00:55:43;;;;;;;5.35;1.05;;;;;;;7.71;81.24;98025.81;5021163;28;20045;-49
2024/02/22 00:58:10;;;;;;;4.90;1.13;;;;;;;7.70;79.81;98008.69;5013642;28;20057;-47
2024/02/22 01:00:37;;;;;;;5.40;1.02;;;;;;;7.67;80.62;98003.59;5003371;28;20069;-47
2024/02/22 01:03:04;;;;;;;10.23;1.67;;;;;;;7.67;80.10;97993.28;5012316;28;20064;-47
2024/02/22 01:05:33;;;;;;;14.85;1.65;;;;;;;7.66;80.17;97986.44;5010460;28;20151;-48
2024/02/22 01:08:00;;;;;;;7.97;1.35;;;;;;;7.64;80.11;97988.22;5030395;28;20143;-49
2024/02/22 01:10:26;;;;;;;4.60;1.35;;;;;;;7.60;80.06;97973.69;5019558;28;20075;-49
2024/02/22 01:12:57;;;;;;;10.38;1.70;;;;;;;7.59;80.57;97972.00;5025798;28;20097;-49
2024/02/22 01:15:24;;;;;;;5.63;1.45;;;;;;;7.53;79.72;97965.28;5012960;28;20056;-48
2024/02/22 01:17:50;;;;;;;3.58;1.95;;;;;;;7.49;81.14;97965.41;5012368;28;20436;-47
2024/02/22 01:20:18;;;;;;;6.88;0.93;;;;;;;7.49;81.10;97960.25;5018599;28;20057;-49
2024/02/22 01:22:46;;;;;;;5.78;2.22;;;;;;;7.44;81.23;97953.47;5008343;28;20056;-51
2024/02/22 01:25:13;;;;;;;8.80;1.08;;;;;;;7.44;81.29;97947.47;5019608;28;20053;-45
2024/02/22 01:27:39;;;;;;;12.13;1.48;;;;;;;7.42;80.66;97942.38;5017980;28;20060;-47
2024/02/22 01:30:07;;;;;;;7.85;2.05;;;;;;;7.44;80.98;97945.72;5019406;28;20233;-47
2024/02/22 01:32:33;;;;;;;6.30;0.90;;;;;;;7.41;80.67;97945.81;5013194;28;20050;-48
2024/02/22 01:35:02;;;;;;;6.70;2.53;;;;;;;7.38;80.98;97935.59;5015192;28;20056;-51
2024/02/22 01:37:30;;;;;;;6.32;0.88;;;;;;;7.36;80.76;97934.78;5018356;28;20046;-48
2024/02/22 01:39:57;;;;;;;4.45;0.70;;;;;;;7.37;80.93;97926.19;5023770;28;20057;-47
2024/02/22 01:42:26;;;;;;;13.27;1.15;;;;;;;7.35;80.11;97922.78;5019071;28;20054;-47
2024/02/22 01:44:54;;;;;;;3.50;2.63;;;;;;;7.29;80.38;97920.34;5011874;28;20053;-45
2024/02/22 01:47:21;;;;;;;7.78;1.85;;;;;;;7.29;81.18;97912.63;5001491;28;20050;-48
2024/02/22 01:49:48;;;;;;;1.13;0.70;;;;;;;7.26;80.55;97913.53;5019803;28;20046;-48
2024/02/22 01:52:15;;;;;;;5.53;2.13;;;;;;;7.25;80.76;97911.84;5014293;28;20050;-48
2024/02/22 01:54:43;;;;;;;3.47;1.15;;;;;;;7.25;81.84;97909.28;5016705;28;20549;-48
2024/02/22 01:57:10;;;;;;;9.40;1.65;;;;;;;7.28;81.51;97903.22;5011352;28;20101;-48
2024/02/22 01:59:36;;;;;;;7.25;0.93;;;;;;;7.27;81.70;97896.38;5007187;28;20061;-48
2024/02/22 02:02:04;;;;;;;4.03;0.85;;;;;;;7.23;81.32;97881.88;5004936;28;20046;-52
2024/02/22 02:04:31;;;;;;;2.80;0.95;;;;;;;7.23;82.33;97884.47;5024416;28;20057;-47
2024/02/22 02:06:59;;;;;;;8.65;1.40;;;;;;;7.23;81.02;97884.47;5021739;28;20046;-53
2024/02/22 02:09:26;;;;;;;11.25;2.13;;;;;;;7.27;82.07;97886.06;5016366;28;20108;-48
2024/02/22 02:11:52;;;;;;;3.22;0.60;;;;;;;7.29;82.34;97882.56;5016295;28;20057;-45
2024/02/22 02:14:20;;;;;;;5.00;0.98;;;;;;;7.36;82.04;97870.38;5015802;28;20049;-44
2024/02/22 02:16:47;;;;;;;2.90;1.58;;;;;;;7.38;82.98;97863.47;5014400;28;20062;-46
2024/02/22 02:19:19;;;;;;;4.28;1.05;;;;;;;7.42;82.41;97854.78;4999678;28;20111;-48
2024/02/22 02:24:44;;;;;;;7.65;1.33;;;;;;;7.56;81.94;97848.44;5051824;27;20390;-47
2024/02/22 02:27:13;;;;;;;11.82;1.02;;;;;;;7.65;81.70;97832.75;5019648;28;20057;-46
2024/02/22 02:29:43;;;;;;;2.58;1.05;;;;;;;7.66;81.75;97826.69;5020256;28;20060;-50
2024/02/22 02:32:11;;;;;;;1.60;1.15;;;;;;;7.61;82.85;97820.84;5015091;28;20474;-52
2024/02/22 02:34:38;;;;;;;12.40;1.15;;;;;;;7.62;82.57;97814.78;5014388;28;20053;-47
2024/02/22 02:37:06;;;;;;;4.88;1.25;;;;;;;7.61;82.05;97818.25;5020661;28;20060;-47
2024/02/22 02:39:33;;;;;;;4.85;1.70;;;;;;;7.60;82.53;97806.25;5019138;28;20054;-48
2024/02/22 02:41:59;;;;;;;10.40;1.83;;;;;;;7.62;81.81;97808.78;5023005;28;20404;-48
2024/02/22 02:44:26;;;;;;;8.05;2.28;;;;;;;7.59;83.04;97805.41;5018530;28;20550;-46
2024/02/22 02:46:53;;;;;;;7.53;1.10;;;;;;;7.61;82.49;97800.22;5021945;28;20478;-44
2024/02/22 02:49:20;;;;;;;3.00;0.63;;;;;;;7.63;82.44;97795.03;5019557;28;20060;-49
2024/02/22 02:51:47;;;;;;;2.20;1.35;;;;;;;7.59;82.67;97782.22;5017583;28;20057;-45
2024/02/22 02:54:15;;;;;;;6.13;0.63;;;;;;;7.54;83.89;97765.19;5023298;28;20153;-46
2024/02/22 02:56:42;;;;;;;1.90;1.08;;;;;;;7.55;83.09;97751.44;5021491;28;20196;-47
2024/02/22 02:59:08;;;;;;;7.88;1.15;;;;;;;7.54;83.31;97736.88;5021707;28;20049;-50
2024/02/22 03:01:36;;;;;;;5.18;1.10;;;;;;;7.52;83.52;97728.31;5022333;28;20133;-51
2024/02/22 03:04:03;;;;;;;6.57;0.77;;;;;;;7.49;84.30;97716.38;5020928;28;20050;-50
2024/02/22 03:06:31;;;;;;;7.78;1.10;;;;;;;7.46;84.40;97704.44;5020131;28;20053;-47
2024/02/22 03:08:58;;;;;;;5.47;0.82;;;;;;;7.51;83.75;97700.88;5023037;28;20128;-51
2024/02/22 03:11:25;;;;;;;4.30;1.77;;;;;;;7.44;84.84;97693.31;5022884;28;20056;-48
2024/02/22 03:13:52;;;;;;;4.70;0.88;;;;;;;7.51;85.03;97682.84;5022876;28;20059;-49
2024/02/22 03:16:19;;;;;;;2.50;0.93;;;;;;;7.52;84.37;97669.06;5014215;28;20081;-51
2024/02/22 03:18:47;;;;;;;3.95;1.08;;;;;;;7.57;84.07;97662.91;5022781;28;20103;-48
2024/02/22 03:21:14;;;;;;;5.32;1.20;;;;;;;7.51;83.76;97657.09;5023425;28;20053;-47
2024/02/22 03:23:40;;;;;;;11.95;1.52;;;;;;;7.53;84.14;97650.19;5022735;28;20056;-48
2024/02/22 03:26:07;;;;;;;1.83;0.65;;;;;;;7.51;84.81;97644.22;5022745;28;20675;-45
2024/02/22 03:28:34;;;;;;;3.65;1.48;;;;;;;7.52;83.84;97628.72;5020484;28;20136;-50
2024/02/22 03:31:01;;;;;;;9.95;1.55;;;;;;;7.54;83.70;97620.94;5022386;28;20053;-48
2024/02/22 03:33:29;;;;;;;4.32;1.38;;;;;;;7.48;84.39;97613.38;5022541;28;20680;-48
2024/02/22 03:35:57;;;;;;;9.68;1.30;;;;;;;7.44;84.33;97610.91;5010395;28;20056;-48
2024/02/22 03:38:24;;;;;;;1.58;0.98;;;;;;;7.42;84.67;97602.38;5011237;28;20060;-48
2024/02/22 03:40:51;;;;;;;5.97;1.20;;;;;;;7.36;85.34;97594.84;5008779;28;20060;-48
2024/02/22 03:43:19;;;;;;;3.65;0.65;;;;;;;7.41;85.68;97590.41;5007724;28;20085;-48
2024/02/22 03:45:46;;;;;;;8.10;0.82;;;;;;;7.45;84.72;97594.56;4999640;28;20054;-49
2024/02/22 03:48:13;;;;;;;6.35;1.00;;;;;;;7.40;84.76;97588.69;4998051;28;20046;-48
2024/02/22 03:50:39;;;;;;;9.23;1.02;;;;;;;7.43;85.46;97587.78;4988931;28;20065;-50
2024/02/22 03:53:07;;;;;;;8.30;1.67;;;;;;;7.44;85.40;97595.44;4981932;28;20050;-52
2024/02/22 03:55:33;;;;;;;8.20;1.05;;;;;;;7.42;85.39;97566.34;4989393;28;20054;-47
2024/02/22 03:58:01;;;;;;;3.00;1.45;;;;;;;7.48;84.52;97574.75;4985977;28;20050;-53
2024/02/22 04:00:28;;;;;;;2.17;1.08;;;;;;;7.51;85.30;97572.09;5007452;28;20137;-51
2024/02/22 04:02:55;;;;;;;9.02;1.30;;;;;;;7.48;84.46;97569.59;5008145;28;20050;-48
2024/02/22 04:05:22;;;;;;;3.50;1.08;;;;;;;7.42;85.59;97561.19;5007826;28;20444;-52
2024/02/22 04:07:49;;;;;;;7.13;1.02;;;;;;;7.45;85.03;97561.09;5003366;28;20046;-46
2024/02/22 04:10:16;;;;;;;4.25;0.60;;;;;;;7.51;84.89;97559.22;5005291;28;20060;-48
2024/02/22 04:12:44;;;;;;;4.15;0.85;;;;;;;7.52;85.48;97555.75;5008647;28;20053;-46
2024/02/22 04:15:11;;;;;;;1.30;0.95;;;;;;;7.57;85.72;97564.19;5006161;28;20050;-44
2024/02/22 04:17:37;;;;;;;6.05;1.42;;;;;;;7.63;85.19;97553.69;5006261;28;20069;-53
2024/02/22 04:20:06;;;;;;;7.88;1.15;;;;;;;7.62;85.98;97546.00;5008468;28;20410;-47
2024/02/22 04:22:48;;;;;;;3.47;0.95;;;;;;;7.64;85.63;97539.94;5008347;28;20467;-49
2024/02/22 04:25:16;;;;;;;12.32;1.45;;;;;;;7.74;85.46;97535.31;5003899;28;20060;-48
2024/02/22 04:27:43;;;;;;;6.50;1.33;;;;;;;7.79;86.05;97519.69;5008156;28;20054;-50
2024/02/22 04:30:13;;;;;;;2.75;1.60;;;;;;;7.77;86.04;97516.34;5004712;28;20053;-47
2024/02/22 04:32:40;;;;;;;2.88;1.30;;;;;;;7.82;86.32;97506.72;5006558;28;20050;-47
2024/02/22 04:35:07;;;;;;;3.70;1.55;;;;;;;7.82;85.64;97499.00;5004194;28;20077;-48
2024/02/22 04:37:35;;;;;;;12.82;1.70;;;;;;;7.92;85.58;97497.81;4998591;28;20460;-47
2024/02/22 04:40:02;;;;;;;5.40;1.10;;;;;;;7.88;85.01;97483.34;4996152;28;20049;-48
2024/02/22 04:42:30;;;;;;;5.50;1.45;;;;;;;7.85;85.27;97473.13;4986694;28;20077;-47
2024/02/22 04:44:57;;;;;;;3.75;0.80;;;;;;;7.95;85.35;97466.78;4985684;28;20078;-47
2024/02/22 04:47:25;;;;;;;6.72;1.13;;;;;;;7.99;85.37;97457.19;4986797;28;20084;-48
2024/02/22 04:49:52;;;;;;;10.25;1.35;;;;;;;8.04;84.93;97454.47;4984891;28;20097;-50
2024/02/22 04:52:18;;;;;;;3.63;1.23;;;;;;;8.07;84.82;97444.06;4986231;28;20081;-44
2024/02/22 04:54:45;;;;;;;6.47;1.42;;;;;;;8.01;84.86;97433.94;4984932;28;20100;-48
2024/02/22 04:57:12;;;;;;;6.50;1.50;;;;;;;8.06;84.63;97424.31;4988182;28;20515;-53
2024/02/22 04:59:39;;;;;;;5.40;1.30;;;;;;;8.04;84.90;97413.22;4981737;28;20134;-48
2024/02/22 05:02:06;;;;;;;5.82;1.55;;;;;;;8.12;84.76;97395.75;4998896;28;20042;-49
2024/02/22 05:04:32;;;;;;;10.65;1.25;;;;;;;8.11;84.61;97404.38;5005196;28;20062;-49
2024/02/22 05:06:59;;;;;;;2.05;1.02;;;;;;;8.10;84.58;97387.22;5009291;28;20045;-50
2024/02/22 05:09:26;;;;;;;12.13;2.58;;;;;;;8.13;84.71;97378.53;5006186;28;20281;-51
2024/02/22 05:11:52;;;;;;;4.47;1.45;;;;;;;8.09;84.47;97372.66;5003027;28;20049;-48
2024/02/22 05:14:21;;;;;;;9.95;1.75;;;;;;;8.17;85.03;97355.16;5001495;28;20042;-49
2024/02/22 05:16:47;;;;;;;5.07;1.17;;;;;;;8.17;83.98;97337.09;5004597;28;20053;-44
2024/02/22 05:19:14;;;;;;;7.32;1.40;;;;;;;8.22;84.27;97334.38;5006570;28;20056;-44
2024/02/22 05:21:41;;;;;;;7.10;1.42;;;;;;;8.19;83.98;97319.84;5006941;28;20538;-50
2024/02/22 05:24:11;;;;;;;6.78;1.85;;;;;;;8.19;84.34;97314.69;5007621;28;20046;-43
2024/02/22 05:26:38;;;;;;;8.48;1.70;;;;;;;8.14;84.85;97306.28;5005305;28;20049;-49
2024/02/22 05:29:05;;;;;;;5.22;1.55;;;;;;;8.25;83.97;97285.28;5002948;28;20526;-50
2024/02/22 05:31:31;;;;;;;6.72;1.38;;;;;;;8.17;84.13;97277.81;5006613;28;20046;-48
2024/02/22 05:33:58;;;;;;;5.43;1.42;;;;;;;8.20;83.83;97274.28;5007285;28;20049;-48
2024/02/22 05:36:25;;;;;;;5.47;0.98;;;;;;;8.16;83.87;97262.41;5006781;28;20077;-50
2024/02/22 05:38:52;;;;;;;3.85;0.85;;;;;;;8.15;83.48;97261.56;5004779;28;20177;-46
2024/02/22 05:41:18;;;;;;;5.57;1.25;;;;;;;8.08;83.65;97245.47;5004977;28;20053;-47
2024/02/22 05:43:45;;;;;;;8.82;1.98;;;;;;;8.14;84.22;97246.16;5006377;28;20454;-49
2024/02/22 05:46:12;;;;;;;6.45;1.67;;;;;;;8.19;83.75;97236.50;5003609;28;20060;-47
2024/02/22 05:48:39;;;;;;;15.90;1.90;;;;;;;8.12;84.36;97210.13;5004329;28;20069;-46
2024/02/22 05:51:05;;;;;;;5.93;2.40;;;;;;;8.12;83.57;97202.38;5007435;28;20045;-49
2024/02/22 05:53:32;;;;;;;5.32;1.73;;;;;;;8.18;83.51;97209.88;5006719;28;20042;-52
2024/02/22 05:56:00;;;;;;;7.43;1.42;;;;;;;8.28;83.77;97194.88;4999399;28;20057;-48
2024/02/22 05:58:27;;;;;;;7.00;1.40;;;;;;;8.36;82.67;97197.16;5004004;28;20103;-47
2024/02/22 06:00:55;;;;;;;10.43;0.98;;;;;;;8.35;82.65;97182.59;5003134;28;20057;-50
2024/02/22 06:03:21;;;;;;;2.92;0.52;;;;;;;8.33;83.09;97181.81;5003817;28;20056;-47
2024/02/22 06:05:48;;;;;;;3.85;1.13;;;;;;;8.30;83.63;97174.19;5006492;28;20121;-47
2024/02/22 06:08:15;;;;;;;11.75;2.03;;;;;;;8.34;83.43;97174.00;5006115;28;20057;-47
2024/02/22 06:10:42;;;;;;;3.00;0.90;;;;;;;8.38;83.77;97169.59;5005723;28;20057;-51
2024/02/22 06:13:09;;;;;;;6.47;1.15;;;;;;;8.44;83.62;97169.31;5006471;28;20046;-49
2024/02/22 06:15:37;;;;;;;4.97;0.90;;;;;;;8.45;82.83;97160.66;4991017;28;20050;-49
2024/02/22 06:18:04;;;;;;;5.53;1.23;;;;;;;8.55;83.40;97150.03;4987559;28;20057;-46
2024/02/22 06:20:31;;;;;;;3.30;0.55;;;;;;;8.52;82.97;97145.81;4985852;28;20080;-47
2024/02/22 06:22:59;;;;;;;10.48;1.77;;;;;;;8.58;83.17;97147.31;4986221;28;20054;-48
2024/02/22 06:25:27;;;;;;;6.15;0.77;;;;;;;8.51;83.17;97138.13;4985268;28;20043;-46
2024/02/22 06:27:55;;;;;;;4.85;1.83;;;;;;;8.52;83.00;97124.31;4986239;28;20061;-48
2024/02/22 06:30:22;;;;;;;5.82;1.90;;;;;;;8.59;82.81;97110.31;4985154;28;20046;-46
2024/02/22 06:32:49;;;;;;;1.77;1.05;;;;;;;8.58;82.87;97093.16;4985894;28;20058;-49
2024/02/22 06:35:17;;;;;;;6.07;1.48;;;;;;;8.61;82.87;97088.69;4984921;28;20038;-50
2024/02/22 06:37:44;;;;;;;5.60;0.80;;;;;;;8.63;83.42;97083.47;4986589;28;20069;-44
2024/02/22 06:40:11;;;;;;;7.47;1.83;;;;;;;8.60;83.13;97081.00;4986622;28;20046;-50
2024/02/22 06:42:39;;;;;;;4.05;1.70;;;;;;;8.60;83.22;97073.28;4986524;28;20057;-48
2024/02/22 06:45:06;;;;;;;1.75;0.75;;;;;;;8.60;83.13;97070.69;4986095;28;20042;-51
2024/02/22 06:47:34;;;;;;;7.95;1.20;;;;;;;8.69;82.42;97074.63;4986531;28;20057;-48
2024/02/22 06:50:03;;;;;;;6.00;1.33;;;;;;;8.65;83.69;97053.25;4982567;28;20534;-50
2024/02/22 06:52:30;;;;;;;1.65;1.23;;;;;;;8.69;83.42;97049.66;4986991;28;20081;-45
2024/02/22 06:54:57;;;;;;;3.90;0.98;;;;;;;8.66;82.98;97044.63;4984210;28;20052;-46
2024/02/22 06:57:23;;;;;;;3.50;0.82;;;;;;;8.72;83.33;97039.19;4984664;28;20058;-46
2024/02/22 06:59:51;;;;;;;10.95;1.17;;;;;;;8.73;82.99;97030.56;4989053;28;20470;-46
2024/02/22 07:02:18;;;;;;;6.90;1.20;;;;;;;8.72;83.12;97022.88;4985942;28;20050;-47
2024/02/22 07:04:46;;;;;;;4.20;1.10;;;;;;;8.76;83.17;97013.25;4985860;28;20109;-47
2024/02/22 07:07:13;;;;;;;4.47;1.30;;;;;;;8.76;83.47;96992.63;4986589;28;20046;-48
2024/02/22 07:09:40;;;;;;;5.03;0.80;;;;;;;8.79;83.79;96992.47;4986819;28;20393;-49
2024/02/22 07:12:08;;;;;;;3.22;0.82;;;;;;;8.73;84.00;96978.97;4990954;28;20053;-49
2024/02/22 07:14:35;;;;;;;4.50;1.45;;;;;;;8.72;84.27;96972.09;4984516;28;20128;-48
2024/02/22 07:17:02;;;;;;;4.90;1.27;;;;;;;8.73;84.18;96962.63;4990353;28;20053;-48
2024/02/22 07:19:29;;;;;;;7.35;0.90;;;;;;;8.81;83.84;96946.81;4989677;28;20054;-48
2024/02/22 07:21:56;;;;;;;3.00;1.05;;;;;;;8.73;84.17;96937.69;4990134;28;20072;-48
2024/02/22 07:24:23;;;;;;;4.28;0.93;;;;;;;8.78;84.46;96918.56;4987937;28;20054;-48
2024/02/22 07:26:49;;;;;;;5.68;0.65;;;;;;;8.82;84.26;96925.25;4991561;28;20053;-44
2024/02/22 07:29:17;;;;;;;5.45;1.77;;;;;;;8.84;84.56;96892.44;4988986;28;20046;-47
2024/02/22 07:31:44;;;;;;;7.85;1.30;;;;;;;8.85;84.59;96887.22;4988265;28;20058;-44
2024/02/22 07:34:11;;;;;;;3.40;1.27;;;;;;;8.89;84.44;96877.59;4989890;28;20053;-47
2024/02/22 07:36:38;;;;;;;2.70;1.42;;;;;;;8.90;84.92;96871.53;4989666;28;20078;-45
2024/02/22 07:39:04;;;;;;;0.65;0.60;;;;;;;8.91;84.36;96857.72;4990496;28;20054;-48
2024/02/22 07:41:31;;;;;;;2.35;0.45;;;;;;;8.93;84.55;96858.47;4980286;28;20089;-54
2024/02/22 07:43:58;;;;;;;4.43;1.13;;;;;;;8.95;84.38;96854.06;4989824;28;20100;-46
2024/02/22 07:46:25;;;;;;;2.65;0.77;;;;;;;8.97;84.98;96847.09;4987232;28;20055;-48
2024/02/22 07:48:51;;;;;;;5.28;1.73;;;;;;;8.97;84.86;96841.09;4987020;28;20054;-49
2024/02/22 07:51:18;;;;;;;2.85;1.10;;;;;;;8.97;85.21;96829.03;4988957;28;20120;-47
2024/02/22 07:53:46;;;;;;;3.17;0.95;;;;;;;8.97;85.75;96823.88;4989344;28;20054;-46
2024/02/22 07:56:13;;;;;;;1.27;0.95;;;;;;;9.02;85.63;96807.31;4986444;28;20400;-50
2024/02/22 07:58:51;;;;;;;0.60;0.60;;;;;;;8.97;85.66;96800.63;4989483;28;20050;-48
2024/02/22 08:01:18;;;;;;;2.67;0.73;;;;;;;9.02;85.83;96786.66;4987253;28;20148;-48
2024/02/22 08:03:45;;;;;;;2.20;0.75;;;;;;;9.03;86.21;96778.00;4984137;28;20077;-47
2024/02/22 08:06:13;;;;;;;2.70;0.80;;;;;;;9.03;86.80;96768.53;4987398;28;20046;-47
2024/02/22 08:08:40;;;;;;;1.20;0.90;;;;;;;9.07;87.30;96758.88;5006282;28;20061;-50
2024/02/22 08:11:09;;;;;;;0.93;0.82;;;;;;;9.13;87.16;96753.41;5008651;28;20049;-49
2024/02/22 08:13:37;;;;;;;0.75;0.75;;;;;;;9.24;86.88;96769.22;5008734;28;20054;-49
2024/02/22 08:16:06;;;;;;;2.83;0.50;;;;;;;9.31;86.69;96774.03;5003295;28;20070;-49
2024/02/22 08:18:33;;;;;;;2.70;0.68;;;;;;;9.47;86.05;96829.22;5002747;28;20418;-51
2024/02/22 08:21:00;;;;;;;2.15;0.75;;;;;;;9.55;85.74;96875.31;5001496;28;20054;-49
2024/02/22 08:23:28;;;;;;;0.50;0.50;;;;;;;9.11;78.10;96843.84;5007673;28;20418;-48
2024/02/22 08:25:56;;;;;;;1.20;0.47;;;;;;;8.41;73.17;96854.78;5006568;28;20053;-48
2024/02/22 08:28:23;;;;;;;1.20;0.63;;;;;;;8.09;74.76;96852.78;5001955;28;20046;-48
2024/02/22 08:30:51;;;;;;;0.50;0.47;;;;;;;7.75;74.58;96866.25;5007402;28;20061;-48
2024/02/22 08:33:20;;;;;;;0.95;0.88;;;;;;;7.62;77.06;96856.47;4998397;28;20054;-48
2024/02/22 08:35:47;;;;;;;0.52;0.50;;;;;;;7.39;76.27;96858.28;5008090;28;20116;-47
2024/02/22 08:38:13;;;;;;;0.28;0.20;;;;;;;7.27;78.25;96830.47;4998207;28;20459;-52
2024/02/22 08:40:41;;;;;;;1.17;1.17;;;;;;;7.23;77.80;96834.88;5008088;28;20060;-51
2024/02/22 08:43:08;;;;;;;0.93;0.50;;;;;;;7.11;77.96;96831.09;5008219;28;20049;-49
2024/02/22 08:45:36;;;;;;;1.40;0.95;;;;;;;7.10;77.86;96821.72;5007537;28;20132;-50
2024/02/22 08:48:03;;;;;;;0.63;0.50;;;;;;;7.10;78.60;96821.72;5007430;28;20058;-50
2024/02/22 08:50:30;;;;;;;1.02;0.70;;;;;;;7.13;78.90;96826.72;5006107;28;20081;-48
2024/02/22 08:52:57;;;;;;;0.50;0.50;;;;;;;7.12;79.68;96822.47;5007647;28;20061;-49
2024/02/22 08:55:24;;;;;;;2.00;0.45;;;;;;;7.18;79.21;96826.53;5006144;28;20046;-48
2024/02/22 08:57:52;;;;;;;0.52;0.40;;;;;;;7.22;80.19;96832.41;5008086;28;20052;-48
2024/02/22 09:00:21;;;;;;;1.02;0.70;;;;;;;7.20;79.87;96830.72;5006497;28;20534;-48
2024/02/22 09:02:48;;;;;;;0.55;0.55;;;;;;;7.15;80.21;96813.78;5006002;28;20313;-47
2024/02/22 09:05:15;;;;;;;0.73;0.73;;;;;;;7.14;80.14;96806.97;5011451;28;20049;-49
2024/02/22 09:07:42;;;;;;;0.60;0.40;;;;;;;7.11;79.88;96810.50;5004953;28;20061;-49
2024/02/22 09:10:11;;;;;;;2.53;1.00;;;;;;;7.09;80.30;96812.28;5005934;28;20643;-48
2024/02/22 09:12:43;;;;;;;0.40;0.40;;;;;;;7.06;79.74;96822.75;5006817;28;20462;-48
2024/02/22 09:15:11;;;;;;;0.95;0.47;;;;;;;7.03;79.17;96805.66;4998634;28;20105;-48
2024/02/22 09:17:38;;;;;;;0.70;0.52;;;;;;;6.99;79.16;96785.28;5004632;28;20045;-49
2024/02/22 09:20:05;;;;;;;1.58;0.73;;;;;;;6.99;80.29;96795.56;5006250;28;20537;-49
2024/02/22 09:22:34;;;;;;;1.80;0.40;;;;;;;6.96;80.35;96806.84;5002614;28;20054;-52
2024/02/22 09:25:06;;;;;;;1.58;0.35;;;;;;;6.90;80.38;96813.06;5007728;28;20141;-51
2024/02/22 09:27:34;;;;;;;3.95;0.77;;;;;;;6.88;80.07;96807.13;5007511;28;20057;-46
2024/02/22 09:30:03;;;;;;;0.90;0.88;;;;;;;6.80;79.68;96806.59;5003053;28;20050;-51
2024/02/22 09:32:30;;;;;;;1.05;0.50;;;;;;;6.85;80.21;96796.94;5004821;28;20053;-48
2024/02/22 09:34:57;;;;;;;1.23;0.57;;;;;;;6.84;79.63;96803.00;5003167;28;20049;-47
2024/02/22 09:37:27;;;;;;;3.03;0.88;;;;;;;6.84;80.33;96813.28;5006959;28;20104;-50
2024/02/22 09:39:54;;;;;;;1.15;1.05;;;;;;;6.81;80.96;96808.25;5002094;28;20053;-48
2024/02/22 09:42:26;;;;;;;1.70;0.88;;;;;;;6.79;79.63;96804.94;5006984;28;20506;-47
2024/02/22 09:44:55;;;;;;;0.90;0.45;;;;;;;6.77;79.61;96796.41;5004551;28;20049;-44
2024/02/22 09:47:23;;;;;;;1.50;0.55;;;;;;;6.78;79.94;96795.50;5011343;28;20046;-49
2024/02/22 09:49:49;;;;;;;4.78;1.77;;;;;;;6.79;79.56;96784.34;4998743;28;20046;-47
2024/02/22 09:52:19;;;;;;;0.57;0.52;;;;;;;6.79;81.20;96787.75;5006150;28;20052;-47
2024/02/22 09:54:48;;;;;;;1.10;0.60;;;;;;;6.80;80.97;96791.16;5007146;28;20237;-51
2024/02/22 09:57:15;;;;;;;2.03;0.50;;;;;;;6.78;80.31;96767.22;5001658;28;20067;-43
2024/02/22 09:59:51;;;;;;;4.22;0.50;;;;;;;6.79;80.26;96743.19;4999602;28;20077;-47
2024/02/22 10:02:20;;;;;;;2.55;1.17;;;;;;;6.80;80.56;96719.94;5001766;28;20358;-51
2024/02/22 10:04:56;;;;;;;0.60;0.55;;;;;;;6.85;80.38;96691.47;5006111;28;20683;-51
2024/02/22 10:07:31;;;;;;;2.38;1.17;;;;;;;6.89;80.91;96672.44;5005321;28;20447;-45
2024/02/22 10:09:58;;;;;;;2.25;0.75;;;;;;;6.93;80.79;96653.41;4999632;28;20053;-46
2024/02/22 10:12:30;;;;;;;1.75;0.60;;;;;;;6.99;80.11;96648.91;5004611;28;20054;-52
2024/02/22 10:14:59;;;;;;;0.80;0.57;;;;;;;7.02;81.45;96641.03;5002795;28;20045;-45
2024/02/22 10:17:29;;;;;;;0.75;0.55;;;;;;;7.05;80.97;96641.75;5002248;28;20426;-48
2024/02/22 10:19:58;;;;;;;0.52;0.50;;;;;;;7.07;80.25;96618.53;5005848;28;20049;-49
2024/02/22 10:22:27;;;;;;;0.63;0.63;;;;;;;7.07;80.32;96597.94;5004760;28;20100;-49
2024/02/22 10:24:54;;;;;;;1.05;0.47;;;;;;;7.11;80.95;96604.63;5004534;28;20069;-51
2024/02/22 10:27:24;;;;;;;0.60;0.40;;;;;;;7.15;79.77;96587.28;4995168;28;20050;-46
2024/02/22 10:29:51;;;;;;;;;;;;;;;7.11;80.85;96568.59;4984816;28;20078;-47
2024/02/22 10:32:20;;;;;;;1.48;1.02;;;;;;;7.15;80.14;96559.81;4982930;28;19940;-45
2024/02/22 10:34:50;;;;;;;0.80;0.65;;;;;;;7.18;80.66;96590.56;4985285;28;20053;-53
2024/02/22 10:37:17;;;;;;;2.33;0.70;;;;;;;7.14;79.38;96601.91;4986379;28;20050;-46
2024/02/22 10:39:45;;;;;;;0.38;0.35;;;;;;;7.08;79.37;96604.75;4985618;28;20518;-50
2024/02/22 10:42:14;;;;;;;0.50;0.47;;;;;;;6.97;80.49;96586.38;4981737;28;20496;-48
2024/02/22 10:44:44;;;;;;;1.17;0.60;;;;;;;6.84;79.95;96574.06;5000899;28;20062;-52
2024/02/22 10:47:11;;;;;;;0.65;0.40;;;;;;;6.84;79.79;96576.63;5009789;28;20053;-52
2024/02/22 10:49:42;;;;;;;0.80;0.30;;;;;;;6.82;79.90;96581.84;4992069;28;20061;-50
2024/02/22 10:52:12;;;;;;;0.98;0.85;;;;;;;6.85;79.95;96578.28;5010914;28;20053;-46
2024/02/22 10:54:42;;;;;;;2.47;1.05;;;;;;;6.82;80.34;96557.84;5010806;28;20049;-48
2024/02/22 10:57:11;;;;;;;0.73;0.68;;;;;;;6.84;80.73;96550.91;5003769;28;20065;-48
2024/02/22 10:59:39;;;;;;;1.00;0.77;;;;;;;6.84;80.11;96545.75;5010369;28;20053;-45
2024/02/22 11:02:07;;;;;;;1.13;1.13;;;;;;;6.85;80.11;96544.84;5007408;28;20053;-49
2024/02/22 11:04:34;;;;;;;0.50;0.50;;;;;;;6.85;79.58;96555.13;5010174;28;20077;-47
2024/02/22 11:07:06;;;;;;;0.98;0.80;;;;;;;6.90;80.20;96550.66;5009775;28;20129;-50
2024/02/22 11:09:40;;;;;;;0.65;0.50;;;;;;;6.90;80.02;96540.34;5008026;28;20176;-48
2024/02/22 11:12:08;;;;;;;1.23;0.75;;;;;;;6.94;80.46;96521.31;5005003;28;20073;-50
2024/02/22 11:14:37;;;;;;;0.98;0.57;;;;;;;6.98;80.11;96510.84;5006909;28;20499;-46
2024/02/22 11:17:21;;;;;;;2.05;0.75;;;;;;;7.00;79.88;96504.75;5001477;28;20124;-50
2024/02/22 11:19:52;;;;;;;0.52;0.52;;;;;;;7.00;80.27;96509.91;5007106;28;20045;-47
2024/02/22 11:22:19;;;;;;;1.35;0.80;;;;;;;7.02;79.66;96507.22;5008587;28;20053;-52
2024/02/22 11:24:49;;;;;;;0.90;0.90;;;;;;;7.05;80.47;96522.53;5009303;28;20053;-46
2024/02/22 11:27:17;;;;;;;0.85;0.38;;;;;;;7.06;79.25;96544.81;4993608;28;20058;-49
2024/02/22 11:29:45;;;;;;;0.43;0.43;;;;;;;7.05;80.57;96548.25;5009748;28;20054;-50
2024/02/22 11:32:13;;;;;;;0.52;0.35;;;;;;;7.01;79.18;96554.44;5009728;28;20172;-51
2024/02/22 11:34:41;;;;;;;0.55;0.55;;;;;;;6.98;79.12;96549.44;5003606;28;20173;-47
2024/02/22 11:37:11;;;;;;;0.65;0.65;;;;;;;6.96;79.94;96543.53;5005213;28;20058;-48
2024/02/22 11:39:38;;;;;;;0.98;0.98;;;;;;;6.96;79.28;96538.41;5006490;28;20515;-51
2024/02/22 11:42:05;;;;;;;0.55;0.52;;;;;;;6.94;79.25;96526.44;5008007;28;20395;-50
2024/02/22 11:44:33;;;;;;;0.65;0.55;;;;;;;7.00;79.38;96519.34;5007816;28;20147;-46
2024/02/22 11:47:00;;;;;;;2.47;0.40;;;;;;;7.03;80.16;96509.72;5007184;28;20053;-49